Time;durP1;ratioP1;P1;durP2;ratioP2;P2;SDS_P1;SDS_P2;PMS_P1;PMS_P2;Temp;Humidity;BMP_temperature;BMP_pressure;BME280_temperature;BME280_humidity;BME280_pressure;Samples;Min_cycle;Max_cycle;Signal;HPM_P1;HPM_P2
2023/08/09 00:02:17;;;;;;;3.33;1.80;;;;;;;15.55;100.00;97233.66;5030668;28;20968;-71
2023/08/09 00:04:43;;;;;;;2.25;1.80;;;;;;;15.54;100.00;97226.72;5030454;28;20781;-71
2023/08/09 00:07:10;;;;;;;2.40;1.80;;;;;;;15.55;100.00;97232.84;5045052;28;20424;-71
2023/08/09 00:09:36;;;;;;;2.72;1.75;;;;;;;15.53;100.00;97235.81;5032244;28;20954;-71
2023/08/09 00:12:04;;;;;;;2.20;1.70;;;;;;;15.52;100.00;97230.72;5030455;28;20881;-71
2023/08/09 00:14:30;;;;;;;2.30;1.70;;;;;;;15.49;100.00;97219.53;5030543;28;20395;-71
2023/08/09 00:16:56;;;;;;;2.10;1.60;;;;;;;15.48;100.00;97220.63;5030523;28;20417;-71
2023/08/09 00:19:24;;;;;;;1.98;1.77;;;;;;;15.46;100.00;97225.44;5030241;28;20880;-71
2023/08/09 00:21:50;;;;;;;2.13;1.67;;;;;;;15.46;100.00;97224.66;5050115;28;20393;-71
2023/08/09 00:24:16;;;;;;;2.10;1.70;;;;;;;15.45;100.00;97220.41;5050196;28;20447;-71
2023/08/09 00:26:43;;;;;;;1.92;1.60;;;;;;;15.44;100.00;97211.59;5050271;28;20788;-71
2023/08/09 00:29:10;;;;;;;2.10;1.73;;;;;;;15.43;100.00;97218.00;5050205;28;20488;-71
2023/08/09 00:31:36;;;;;;;1.83;1.67;;;;;;;15.42;100.00;97215.63;5050083;28;20891;-71
2023/08/09 00:34:03;;;;;;;3.25;1.52;;;;;;;15.38;100.00;97226.06;5050189;28;20406;-71
2023/08/09 00:36:30;;;;;;;1.60;1.50;;;;;;;15.37;100.00;97215.69;5050080;28;20415;-71
2023/08/09 00:38:56;;;;;;;1.90;1.50;;;;;;;15.34;100.00;97209.03;5045700;28;20911;-71
2023/08/09 00:41:22;;;;;;;2.70;1.77;;;;;;;15.30;100.00;97208.03;5030260;28;20472;-71
2023/08/09 00:43:48;;;;;;;1.77;1.50;;;;;;;15.27;100.00;97205.94;5030261;28;20415;-71
2023/08/09 00:46:16;;;;;;;3.60;2.10;;;;;;;15.23;100.00;97210.25;5030336;28;20457;-71
2023/08/09 00:48:42;;;;;;;1.90;1.58;;;;;;;15.22;100.00;97197.22;5032335;28;20761;-71
2023/08/09 00:51:09;;;;;;;3.28;1.60;;;;;;;15.19;100.00;97200.44;5044118;28;20399;-71
2023/08/09 00:53:36;;;;;;;4.47;1.75;;;;;;;15.15;100.00;97204.75;5033211;28;20486;-71
2023/08/09 00:56:02;;;;;;;2.67;1.83;;;;;;;15.10;100.00;97195.75;5048909;28;20746;-71
2023/08/09 00:58:28;;;;;;;2.23;1.60;;;;;;;15.04;100.00;97196.88;5033860;28;20418;-71
2023/08/09 01:00:55;;;;;;;2.90;1.80;;;;;;;15.02;100.00;97195.56;5034000;28;20469;-71
2023/08/09 01:03:22;;;;;;;2.55;1.75;;;;;;;15.00;100.00;97195.06;5034066;28;20402;-71
2023/08/09 01:05:58;;;;;;;3.00;1.50;;;;;;;14.99;100.00;97204.94;5033868;28;20407;-71
2023/08/09 01:08:29;;;;;;;3.73;2.03;;;;;;;14.98;100.00;97202.53;5033775;28;20407;-71
2023/08/09 01:11:03;;;;;;;2.97;2.05;;;;;;;14.96;100.00;97200.16;5046313;28;20904;-71
2023/08/09 01:13:31;;;;;;;2.63;1.90;;;;;;;14.91;100.00;97197.56;5053628;28;20401;-71
2023/08/09 01:15:59;;;;;;;3.00;1.90;;;;;;;14.91;100.00;97188.75;5053673;28;20875;-71
2023/08/09 01:18:27;;;;;;;4.73;2.20;;;;;;;14.88;100.00;97184.81;5053451;28;20453;-71
2023/08/09 01:20:54;;;;;;;3.03;1.88;;;;;;;14.88;100.00;97184.81;5053475;28;20890;-71
2023/08/09 01:23:20;;;;;;;5.10;1.77;;;;;;;14.87;100.00;97185.88;5053570;28;20393;-71
2023/08/09 01:25:48;;;;;;;2.30;1.70;;;;;;;14.86;100.00;97186.16;5053390;28;20433;-71
2023/08/09 01:28:18;;;;;;;2.03;1.80;;;;;;;14.86;100.00;97183.50;5053302;28;20394;-71
2023/08/09 01:30:45;;;;;;;1.95;1.67;;;;;;;14.83;100.00;97179.50;5053316;28;20405;-71
2023/08/09 01:33:12;;;;;;;2.30;1.95;;;;;;;14.81;100.00;97178.22;5053316;28;20412;-71
2023/08/09 01:35:44;;;;;;;1.90;1.70;;;;;;;14.78;100.00;97179.56;5053232;28;20402;-71
2023/08/09 01:38:17;;;;;;;2.05;1.67;;;;;;;14.75;100.00;97176.66;5046864;28;20945;-71
2023/08/09 01:40:44;;;;;;;2.15;1.83;;;;;;;14.71;100.00;97185.25;5033304;28;20482;-71
2023/08/09 01:43:11;;;;;;;1.90;1.52;;;;;;;14.71;100.00;97187.91;5033285;28;20407;-71
2023/08/09 01:45:38;;;;;;;3.10;1.77;;;;;;;14.68;100.00;97193.78;5033270;28;20455;-71
2023/08/09 01:48:05;;;;;;;3.57;1.90;;;;;;;14.66;100.00;97192.47;5033137;28;20409;-71
2023/08/09 01:50:32;;;;;;;1.70;1.50;;;;;;;14.61;100.00;97190.66;5033110;28;20457;-71
2023/08/09 01:52:58;;;;;;;2.55;2.13;;;;;;;14.59;100.00;97184.81;5037592;28;20405;-71
2023/08/09 01:55:26;;;;;;;2.00;1.80;;;;;;;14.57;100.00;97189.66;5044821;28;20411;-71
2023/08/09 01:57:53;;;;;;;2.17;1.88;;;;;;;14.56;100.00;97195.25;5044811;28;20801;-70
2023/08/09 02:00:24;;;;;;;3.00;2.10;;;;;;;14.53;100.00;97196.59;5045504;28;20411;-71
2023/08/09 02:02:52;;;;;;;2.40;2.00;;;;;;;14.52;100.00;97210.19;5032899;28;20481;-71
2023/08/09 02:05:19;;;;;;;2.30;1.80;;;;;;;14.50;100.00;97207.81;5032133;28;20410;-71
2023/08/09 02:07:45;;;;;;;1.83;1.67;;;;;;;14.47;100.00;97213.69;5032621;28;20505;-71
2023/08/09 02:10:12;;;;;;;2.13;1.77;;;;;;;14.46;100.00;97221.97;5033050;28;20651;-71
2023/08/09 02:12:39;;;;;;;2.05;1.88;;;;;;;14.46;100.00;97219.31;5032576;28;20938;-71
2023/08/09 02:15:06;;;;;;;1.98;1.77;;;;;;;14.46;100.00;97221.97;5032703;28;20457;-71
2023/08/09 02:17:34;;;;;;;2.13;1.92;;;;;;;14.47;100.00;97223.56;5032500;28;20410;-71
2023/08/09 02:20:01;;;;;;;4.45;2.10;;;;;;;14.47;100.00;97220.91;5032597;28;20415;-71
2023/08/09 02:22:35;;;;;;;2.13;1.92;;;;;;;14.46;100.00;97224.63;5032347;28;20411;-71
2023/08/09 02:25:02;;;;;;;2.22;2.00;;;;;;;14.45;100.00;97229.16;5037471;28;20488;-71
2023/08/09 02:27:28;;;;;;;3.20;2.03;;;;;;;14.47;100.00;97236.88;5035412;28;20773;-71
2023/08/09 02:29:55;;;;;;;3.60;2.28;;;;;;;14.47;100.00;97231.56;5032499;28;20403;-71
2023/08/09 02:32:21;;;;;;;3.25;2.42;;;;;;;14.45;100.00;97229.16;5032252;28;20395;-71
2023/08/09 02:34:49;;;;;;;3.13;2.35;;;;;;;14.45;100.00;97231.81;5032338;28;20489;-71
2023/08/09 02:37:15;;;;;;;3.63;2.50;;;;;;;14.45;100.00;97231.81;5032456;28;20410;-71
2023/08/09 02:39:41;;;;;;;2.90;2.30;;;;;;;14.45;100.00;97233.69;5031935;28;20509;-71
2023/08/09 02:42:07;;;;;;;3.35;2.45;;;;;;;14.44;100.00;97232.09;5032213;28;20746;-71
2023/08/09 02:44:34;;;;;;;3.85;2.50;;;;;;;14.44;100.00;97229.44;5032155;28;20407;-71
2023/08/09 02:47:00;;;;;;;3.70;2.67;;;;;;;14.43;100.00;97230.53;5031989;28;20409;-71
2023/08/09 02:49:26;;;;;;;4.28;2.63;;;;;;;14.43;100.00;97227.88;5031904;28;20438;-71
2023/08/09 02:51:54;;;;;;;4.40;2.43;;;;;;;14.42;100.00;97229.72;5031959;28;20889;-71
2023/08/09 02:54:20;;;;;;;3.30;2.40;;;;;;;14.41;100.00;97228.13;5031932;28;20403;-71
2023/08/09 02:56:46;;;;;;;3.83;2.60;;;;;;;14.42;100.00;97232.41;5034597;28;20492;-71
2023/08/09 02:59:12;;;;;;;5.40;2.55;;;;;;;14.43;100.00;97233.19;5045124;28;20415;-71
2023/08/09 03:01:39;;;;;;;4.57;2.60;;;;;;;14.42;100.00;97234.25;5031646;28;20960;-71
2023/08/09 03:04:05;;;;;;;3.45;2.78;;;;;;;14.42;100.00;97239.59;5031801;28;20582;-71
2023/08/09 03:06:32;;;;;;;2.47;2.28;;;;;;;14.40;100.00;97247.84;5031615;28;20888;-71
2023/08/09 03:08:59;;;;;;;3.30;2.53;;;;;;;14.39;100.00;97240.94;5031517;28;20407;-71
2023/08/09 03:11:26;;;;;;;4.80;2.50;;;;;;;14.38;100.00;97235.84;5031550;28;20486;-71
2023/08/09 03:13:52;;;;;;;4.10;2.47;;;;;;;14.38;100.00;97236.69;5031695;28;20403;-71
2023/08/09 03:16:19;;;;;;;4.43;2.60;;;;;;;14.37;100.00;97231.59;5030835;28;20873;-71
2023/08/09 03:18:45;;;;;;;3.57;2.50;;;;;;;14.37;100.00;97226.25;5030912;28;21687;-71
2023/08/09 03:21:12;;;;;;;3.53;2.65;;;;;;;14.37;100.00;97231.59;5031443;28;20422;-71
2023/08/09 03:23:39;;;;;;;4.87;2.67;;;;;;;14.36;100.00;97230.78;5031351;28;20460;-71
2023/08/09 03:26:06;;;;;;;4.75;2.75;;;;;;;14.36;100.00;97236.13;5031354;28;20414;-71
2023/08/09 03:28:33;;;;;;;2.83;2.35;;;;;;;14.36;100.00;97235.34;5031071;28;20395;-71
2023/08/09 03:30:59;;;;;;;3.85;2.63;;;;;;;14.36;100.00;97241.44;5031128;28;20407;-71
2023/08/09 03:33:26;;;;;;;3.60;2.75;;;;;;;14.38;100.00;97231.34;5031140;28;20430;-71
2023/08/09 03:35:52;;;;;;;4.00;3.13;;;;;;;14.38;100.00;97231.34;5031159;28;20399;-71
2023/08/09 03:38:18;;;;;;;3.80;2.45;;;;;;;14.39;100.00;97246.25;5030985;28;20507;-72
2023/08/09 03:40:44;;;;;;;4.15;2.72;;;;;;;14.39;100.00;97238.28;5030962;28;20399;-72
2023/08/09 03:43:12;;;;;;;2.97;2.60;;;;;;;14.40;100.00;97234.53;5031056;28;20407;-72
2023/08/09 03:45:38;;;;;;;4.55;2.65;;;;;;;14.40;100.00;97236.41;5029584;28;20411;-72
2023/08/09 03:48:05;;;;;;;2.95;2.45;;;;;;;14.40;100.00;97237.19;5030739;28;20411;-72
2023/08/09 03:50:31;;;;;;;3.20;2.42;;;;;;;14.41;100.00;97238.78;5030899;28;20472;-72
2023/08/09 03:52:57;;;;;;;2.70;2.40;;;;;;;14.40;100.00;97233.75;5030856;28;20399;-72
2023/08/09 03:55:23;;;;;;;3.67;2.47;;;;;;;14.41;100.00;97244.13;5030715;28;20464;-72
2023/08/09 03:57:50;;;;;;;2.80;2.50;;;;;;;14.42;100.00;97240.38;5030729;28;20915;-71
2023/08/09 04:00:18;;;;;;;3.93;2.57;;;;;;;14.43;100.00;97246.50;5030658;28;20447;-71
2023/08/09 04:02:45;;;;;;;2.58;2.38;;;;;;;14.42;100.00;97250.25;5046983;28;20400;-71
2023/08/09 04:05:11;;;;;;;3.08;2.42;;;;;;;14.42;100.00;97258.22;5030793;28;20718;-71
2023/08/09 04:07:38;;;;;;;4.05;2.45;;;;;;;14.42;100.00;97253.69;5030425;28;20407;-71
2023/08/09 04:10:06;;;;;;;3.85;2.45;;;;;;;14.42;100.00;97250.25;5030601;28;20399;-71
2023/08/09 04:12:33;;;;;;;4.43;2.60;;;;;;;14.44;100.00;97250.75;5030507;28;20403;-71
2023/08/09 04:14:59;;;;;;;3.50;2.80;;;;;;;14.45;100.00;97247.00;5030587;28;20399;-71
2023/08/09 04:17:26;;;;;;;3.50;2.60;;;;;;;14.44;100.00;97243.53;5030494;28;20461;-71
2023/08/09 04:19:53;;;;;;;3.00;2.50;;;;;;;14.45;100.00;97244.34;5042439;28;20475;-71
2023/08/09 04:22:19;;;;;;;3.35;2.50;;;;;;;14.46;100.00;97243.28;5050341;28;20425;-71
2023/08/09 04:24:45;;;;;;;2.67;2.40;;;;;;;14.47;100.00;97243.00;5050220;28;20401;-71
2023/08/09 04:27:11;;;;;;;4.45;2.50;;;;;;;14.47;100.00;97240.34;5050390;28;20436;-71
2023/08/09 04:29:37;;;;;;;2.60;2.25;;;;;;;14.49;100.00;97248.84;5049806;28;20824;-71
2023/08/09 04:32:04;;;;;;;3.33;2.70;;;;;;;14.48;100.00;97241.94;5050130;28;20405;-72
2023/08/09 04:34:31;;;;;;;3.15;2.22;;;;;;;14.50;100.00;97244.31;5050181;28;20437;-72
2023/08/09 04:36:58;;;;;;;3.15;2.20;;;;;;;14.46;100.00;97238.75;5050268;28;20463;-72
2023/08/09 04:39:24;;;;;;;3.13;2.40;;;;;;;14.46;100.00;97240.59;5049985;28;20944;-71
2023/08/09 04:41:50;;;;;;;3.38;2.70;;;;;;;14.50;100.00;97244.31;5049998;28;20488;-71
2023/08/09 04:44:17;;;;;;;4.82;2.70;;;;;;;14.47;100.00;97240.34;5050118;28;20732;-71
2023/08/09 04:46:44;;;;;;;2.92;2.45;;;;;;;14.48;100.00;97246.47;5049912;28;20429;-70
2023/08/09 04:49:12;;;;;;;3.13;2.58;;;;;;;14.49;100.00;97240.84;5049924;28;20891;-71
2023/08/09 04:51:40;;;;;;;3.40;2.50;;;;;;;14.50;100.00;97239.78;5049913;28;20409;-71
2023/08/09 04:54:06;;;;;;;8.80;2.90;;;;;;;14.51;100.00;97238.69;5050041;28;20401;-71
2023/08/09 04:56:33;;;;;;;3.40;2.50;;;;;;;14.51;100.00;97230.69;5049807;28;20405;-71
2023/08/09 04:58:59;;;;;;;4.60;2.42;;;;;;;14.56;100.00;97233.34;5049725;28;20409;-71
2023/08/09 05:01:25;;;;;;;4.77;2.40;;;;;;;14.58;100.00;97231.19;5049807;28;20593;-71
2023/08/09 05:03:51;;;;;;;4.03;2.63;;;;;;;14.60;100.00;97226.38;5049904;28;20405;-71
2023/08/09 05:06:17;;;;;;;2.85;2.55;;;;;;;14.63;100.00;97227.69;5049853;28;20485;-71
2023/08/09 05:08:45;;;;;;;3.20;2.13;;;;;;;14.64;100.00;97231.94;5049671;28;20402;-71
2023/08/09 05:11:11;;;;;;;5.28;2.83;;;;;;;14.65;100.00;97231.66;5049805;28;20404;-71
2023/08/09 05:13:37;;;;;;;5.38;2.60;;;;;;;14.68;100.00;97231.09;5047978;28;20492;-70
2023/08/09 05:16:04;;;;;;;2.95;2.08;;;;;;;14.73;100.00;97233.69;5029717;28;20630;-71
2023/08/09 05:18:30;;;;;;;4.18;2.55;;;;;;;14.75;100.00;97235.28;5029522;28;20449;-71
2023/08/09 05:20:58;;;;;;;4.80;2.55;;;;;;;14.83;100.00;97242.66;5028476;28;20438;-71
2023/08/09 05:23:24;;;;;;;4.50;2.60;;;;;;;14.83;100.00;97234.69;5029826;28;20495;-71
2023/08/09 05:25:51;;;;;;;4.30;2.35;;;;;;;14.87;100.00;97233.84;5029715;28;20781;-71
2023/08/09 05:28:17;;;;;;;2.10;1.90;;;;;;;14.88;100.00;97229.31;5029686;28;20402;-71
2023/08/09 05:30:44;;;;;;;7.72;2.70;;;;;;;14.79;100.00;97221.13;5029663;28;20449;-71
2023/08/09 05:33:10;;;;;;;3.30;2.40;;;;;;;14.87;100.00;97225.06;5029742;28;20490;-71
2023/08/09 05:35:36;;;;;;;2.57;2.03;;;;;;;14.90;100.00;97230.59;5029703;28;20439;-70
2023/08/09 05:38:03;;;;;;;3.60;2.38;;;;;;;14.94;100.00;97228.19;5029587;28;20829;-71
2023/08/09 05:40:29;;;;;;;3.43;2.00;;;;;;;14.97;100.00;97225.72;5030948;28;20781;-71
2023/08/09 05:42:56;;;;;;;2.53;1.90;;;;;;;15.01;100.00;97226.78;5033155;28;20417;-71
2023/08/09 05:45:23;;;;;;;2.53;2.10;;;;;;;15.03;100.00;97229.16;5033193;28;20804;-71
2023/08/09 05:47:49;;;;;;;2.60;2.00;;;;;;;15.06;100.00;97225.91;5032977;28;20841;-71
2023/08/09 05:50:15;;;;;;;2.93;2.00;;;;;;;15.10;100.00;97224.28;5033167;28;20395;-71
2023/08/09 05:52:42;;;;;;;2.58;2.10;;;;;;;15.11;100.00;97223.19;5032890;28;20395;-71
2023/08/09 05:55:09;;;;;;;3.00;2.00;;;;;;;15.14;100.00;97229.81;5032993;28;20399;-71
2023/08/09 05:57:36;;;;;;;2.28;1.77;;;;;;;15.17;100.00;97238.06;5032887;28;20438;-71
2023/08/09 06:00:06;;;;;;;2.80;2.05;;;;;;;15.20;100.00;97223.34;5032946;28;20415;-70
2023/08/09 06:02:33;;;;;;;2.63;2.00;;;;;;;15.22;100.00;97221.19;5031570;28;20407;-70
2023/08/09 06:05:00;;;;;;;4.32;2.20;;;;;;;15.25;100.00;97228.66;5032907;28;20403;-70
2023/08/09 06:07:27;;;;;;;3.27;2.10;;;;;;;15.25;100.00;97232.09;5041162;28;20403;-70
2023/08/09 06:09:54;;;;;;;2.65;1.80;;;;;;;15.31;100.00;97232.84;5040646;28;20499;-70
2023/08/09 06:12:20;;;;;;;3.65;2.40;;;;;;;15.32;100.00;97229.09;5032676;28;20403;-70
2023/08/09 06:14:46;;;;;;;2.70;2.20;;;;;;;15.35;100.00;97237.31;5032577;28;20403;-70
2023/08/09 06:17:14;;;;;;;3.53;2.22;;;;;;;15.41;100.00;97236.16;5039095;28;20748;-70
2023/08/09 06:19:40;;;;;;;3.47;2.20;;;;;;;15.46;100.00;97228.13;5048811;28;20418;-70
2023/08/09 06:22:06;;;;;;;2.00;1.80;;;;;;;15.52;100.00;97241.38;5032516;28;20507;-71
2023/08/09 06:24:32;;;;;;;3.85;2.05;;;;;;;15.56;100.00;97235.25;5032404;28;20458;-71
2023/08/09 06:26:59;;;;;;;2.40;1.90;;;;;;;15.62;100.00;97239.44;5032362;28;20457;-71
2023/08/09 06:29:25;;;;;;;3.53;2.00;;;;;;;15.68;100.00;97235.59;5032126;28;20403;-71
2023/08/09 06:31:51;;;;;;;2.75;2.00;;;;;;;15.76;100.00;97234.16;5032245;28;20486;-71
2023/08/09 06:34:19;;;;;;;2.70;1.98;;;;;;;15.83;100.00;97242.59;5032317;28;20410;-71
2023/08/09 06:36:45;;;;;;;3.75;2.10;;;;;;;15.89;100.00;97254.81;5032261;28;20422;-71
2023/08/09 06:39:11;;;;;;;3.10;1.98;;;;;;;15.94;100.00;97259.28;5032141;28;20415;-71
2023/08/09 06:41:37;;;;;;;1.98;1.65;;;;;;;15.98;100.00;97258.41;5032067;28;20403;-71
2023/08/09 06:44:05;;;;;;;2.25;1.90;;;;;;;16.02;100.00;97255.94;5031931;28;20781;-71
2023/08/09 06:46:31;;;;;;;4.70;2.15;;;;;;;16.08;100.00;97252.16;5032029;28;20460;-71
2023/08/09 06:48:57;;;;;;;2.58;1.80;;;;;;;16.14;100.00;97251.00;5031965;28;20800;-71
2023/08/09 06:51:26;;;;;;;2.22;1.80;;;;;;;16.26;100.00;97243.31;5030477;28;20411;-71
2023/08/09 06:53:52;;;;;;;3.75;2.13;;;;;;;16.31;100.00;97251.28;5032063;28;20407;-71
2023/08/09 06:56:18;;;;;;;4.60;2.30;;;;;;;16.40;100.00;97257.50;5031895;28;20750;-71
2023/08/09 06:58:44;;;;;;;3.03;2.00;;;;;;;16.49;100.00;97245.09;5042409;28;20467;-71
2023/08/09 07:01:11;;;;;;;3.00;1.95;;;;;;;16.59;100.00;97249.47;5037253;28;20407;-71
2023/08/09 07:03:38;;;;;;;2.55;1.80;;;;;;;16.70;100.00;97252.78;5031850;28;20451;-71
2023/08/09 07:06:04;;;;;;;3.40;1.77;;;;;;;16.81;100.00;97259.56;5031836;28;20469;-71
2023/08/09 07:08:32;;;;;;;2.10;1.80;;;;;;;16.92;100.00;97261.75;5031600;28;20399;-71
2023/08/09 07:10:58;;;;;;;3.85;1.98;;;;;;;17.00;100.00;97271.78;5031734;28;20481;-71
2023/08/09 07:13:25;;;;;;;3.28;1.77;;;;;;;17.01;100.00;97280.59;5031728;28;20476;-71
2023/08/09 07:15:51;;;;;;;3.38;1.95;;;;;;;17.00;100.00;97281.66;5043394;28;20430;-71
2023/08/09 07:18:18;;;;;;;4.70;2.10;;;;;;;16.99;100.00;97290.78;5051230;28;20410;-71
2023/08/09 07:20:44;;;;;;;3.17;1.63;;;;;;;16.95;100.00;97287.91;5051277;28;20410;-71
2023/08/09 07:23:10;;;;;;;2.08;1.60;;;;;;;16.97;100.00;97279.59;5045420;28;20407;-71
2023/08/09 07:25:38;;;;;;;2.30;1.60;;;;;;;17.04;100.00;97285.34;5031328;28;20886;-71
2023/08/09 07:28:05;;;;;;;2.97;1.95;;;;;;;17.09;100.00;97289.81;5031112;28;20438;-71
2023/08/09 07:30:31;;;;;;;3.08;1.80;;;;;;;17.09;100.00;97287.13;5031255;28;20399;-71
2023/08/09 07:32:57;;;;;;;3.10;2.00;;;;;;;17.09;100.00;97287.94;5031268;28;20950;-71
2023/08/09 07:35:24;;;;;;;2.00;1.48;;;;;;;17.14;100.00;97290.50;5031209;28;20453;-70
2023/08/09 07:37:50;;;;;;;3.43;1.87;;;;;;;17.14;100.00;97285.16;5031020;28;20410;-70
2023/08/09 07:40:16;;;;;;;3.78;1.60;;;;;;;17.19;100.00;97287.75;5031044;28;20433;-71
2023/08/09 07:42:45;;;;;;;2.80;1.40;;;;;;;17.24;100.00;97284.97;5030928;28;20403;-70
2023/08/09 07:45:12;;;;;;;2.83;1.75;;;;;;;17.27;100.00;97283.59;5030978;28;20407;-71
2023/08/09 07:47:39;;;;;;;3.53;1.63;;;;;;;17.30;100.00;97291.81;5031042;28;20406;-71
2023/08/09 07:50:06;;;;;;;3.08;1.83;;;;;;;17.39;100.00;97300.75;5030939;28;20482;-71
2023/08/09 07:52:33;;;;;;;2.83;1.80;;;;;;;17.43;100.00;97295.63;5030817;28;20498;-70
2023/08/09 07:54:59;;;;;;;3.53;1.38;;;;;;;17.47;100.00;97295.78;5030995;28;20400;-70
2023/08/09 07:57:25;;;;;;;2.63;1.42;;;;;;;17.52;100.00;97306.38;5029156;28;20454;-70
2023/08/09 07:59:53;;;;;;;3.60;1.60;;;;;;;17.57;100.00;97311.66;5047118;28;20849;-70
2023/08/09 08:02:19;;;;;;;1.80;1.50;;;;;;;17.57;100.00;97304.44;5030459;28;20494;-72
2023/08/09 08:04:45;;;;;;;2.40;1.57;;;;;;;17.55;100.00;97313.84;5030609;28;20506;-71
2023/08/09 08:07:13;;;;;;;2.85;1.70;;;;;;;17.53;100.00;97314.13;5030655;28;20482;-71
2023/08/09 08:09:41;;;;;;;2.90;1.63;;;;;;;17.49;100.00;97329.22;5030528;28;20418;-71
2023/08/09 08:12:08;;;;;;;2.70;1.60;;;;;;;17.48;100.00;97327.63;5030871;28;20766;-71
2023/08/09 08:14:35;;;;;;;2.92;1.60;;;;;;;17.46;100.00;97324.44;5030601;28;20407;-71
2023/08/09 08:17:02;;;;;;;2.00;1.40;;;;;;;17.49;100.00;97328.41;5030548;28;20398;-71
2023/08/09 08:19:29;;;;;;;1.92;1.50;;;;;;;17.54;100.00;97333.66;5030321;28;20419;-71
2023/08/09 08:21:55;;;;;;;1.90;1.40;;;;;;;17.60;100.00;97327.13;5030416;28;20419;-71
2023/08/09 08:24:21;;;;;;;1.65;1.42;;;;;;;17.66;100.00;97328.66;5030484;28;20411;-71
2023/08/09 08:26:48;;;;;;;2.13;1.50;;;;;;;17.74;100.00;97344.78;5030477;28;20414;-71
2023/08/09 08:29:15;;;;;;;1.20;1.10;;;;;;;17.83;100.00;97341.41;5030317;28;20816;-72
2023/08/09 08:31:44;;;;;;;2.72;1.63;;;;;;;17.88;100.00;97344.00;5030196;28;20407;-69
2023/08/09 08:34:12;;;;;;;2.03;1.50;;;;;;;17.88;100.00;97349.38;5030243;28;20414;-71
2023/08/09 08:36:38;;;;;;;2.33;1.50;;;;;;;17.93;100.00;97347.38;5030243;28;20411;-70
2023/08/09 08:39:11;;;;;;;3.35;1.80;;;;;;;18.00;100.00;97363.84;5030100;28;20466;-70
2023/08/09 08:41:38;;;;;;;3.50;1.60;;;;;;;18.01;100.00;97344.00;5030080;28;20746;-70
2023/08/09 08:44:05;;;;;;;2.97;1.67;;;;;;;18.03;100.00;97363.25;5030516;28;20761;-70
2023/08/09 08:46:33;;;;;;;1.70;1.40;;;;;;;18.10;100.00;97352.13;5030152;28;20449;-72
2023/08/09 08:49:03;;;;;;;2.22;1.40;;;;;;;18.19;100.00;97364.50;5030206;28;20494;-71
2023/08/09 08:51:33;;;;;;;1.92;1.40;;;;;;;18.21;100.00;97363.41;5030117;28;20486;-71
2023/08/09 08:53:59;;;;;;;2.42;1.27;;;;;;;18.13;100.00;97363.03;5030258;28;20454;-71
2023/08/09 08:56:26;;;;;;;2.00;1.40;;;;;;;18.06;100.00;97359.97;5030010;28;20958;-71
2023/08/09 08:58:52;;;;;;;2.40;1.50;;;;;;;18.09;100.00;97358.56;5029731;28;20418;-72
2023/08/09 09:01:19;;;;;;;3.03;1.75;;;;;;;18.13;100.00;97360.34;5029837;28;20430;-70
2023/08/09 09:03:45;;;;;;;4.38;1.77;;;;;;;18.13;100.00;97368.38;5029885;28;20406;-70
2023/08/09 09:06:12;;;;;;;4.25;1.80;;;;;;;18.25;100.00;97361.72;5030057;28;20877;-70
2023/08/09 09:08:42;;;;;;;4.18;1.73;;;;;;;18.38;100.00;97359.00;5029918;28;20482;-70
2023/08/09 09:11:15;;;;;;;2.40;1.60;;;;;;;18.48;100.00;97358.00;5029855;28;20395;-70
2023/08/09 09:13:41;;;;;;;3.05;1.63;;;;;;;18.58;100.00;97360.47;5032178;28;20419;-71
2023/08/09 09:16:07;;;;;;;2.20;1.60;;;;;;;18.72;100.00;97361.22;5046680;28;20446;-71
2023/08/09 09:18:41;;;;;;;2.47;1.50;;;;;;;18.79;100.00;97358.94;5042901;28;20444;-70
2023/08/09 09:21:10;;;;;;;2.80;1.58;;;;;;;18.88;100.00;97364.31;5039799;28;20823;-70
2023/08/09 09:23:37;;;;;;;2.35;1.60;;;;;;;18.95;100.00;97362.00;5033501;28;20422;-71
2023/08/09 09:26:08;;;;;;;3.25;1.60;;;;;;;19.04;100.00;97365.56;5033541;28;20453;-70
2023/08/09 09:28:41;;;;;;;3.60;1.50;;;;;;;19.09;100.00;97367.34;5033454;28;20403;-71
2023/08/09 09:31:08;;;;;;;2.90;1.67;;;;;;;19.18;100.00;97377.00;5033541;28;20469;-71
2023/08/09 09:33:35;;;;;;;2.80;1.43;;;;;;;19.21;100.00;97362.19;5033368;28;20403;-70
2023/08/09 09:36:01;;;;;;;1.88;1.48;;;;;;;19.27;100.00;97380.53;5033444;28;20489;-70
2023/08/09 09:38:28;;;;;;;2.70;1.73;;;;;;;19.30;100.00;97369.19;5031891;28;20468;-70
2023/08/09 09:40:56;;;;;;;2.72;1.60;;;;;;;19.36;100.00;97385.16;5033240;28;20403;-70
2023/08/09 09:43:24;;;;;;;2.33;1.60;;;;;;;19.46;100.00;97379.53;5033291;28;20447;-71
2023/08/09 09:45:54;;;;;;;4.47;1.83;;;;;;;19.43;100.00;97374.78;5033301;28;20604;-71
2023/08/09 09:48:21;;;;;;;3.15;1.42;;;;;;;19.40;100.00;97376.19;5033159;28;20421;-70
2023/08/09 09:50:48;;;;;;;2.08;1.50;;;;;;;19.46;100.00;97376.88;5033127;28;20403;-70
2023/08/09 09:53:16;;;;;;;4.45;1.70;;;;;;;19.50;100.00;97375.16;5033224;28;20843;-71
2023/08/09 09:55:42;;;;;;;2.78;1.35;;;;;;;19.52;100.00;97376.44;5032983;28;20815;-70
2023/08/09 09:58:08;;;;;;;3.05;1.65;;;;;;;19.50;100.00;97380.53;5032956;28;20895;-71
2023/08/09 10:00:37;;;;;;;3.83;1.98;;;;;;;19.50;100.00;97378.63;5032810;28;20423;-71
2023/08/09 10:03:04;;;;;;;3.28;1.83;;;;;;;19.57;100.00;97376.31;5032884;28;20995;-70
2023/08/09 10:05:35;;;;;;;5.15;1.60;;;;;;;19.57;100.00;97387.03;5032869;28;20407;-71
2023/08/09 10:08:04;;;;;;;2.00;1.50;;;;;;;19.61;100.00;97382.66;5032911;28;20469;-71
2023/08/09 10:10:32;;;;;;;2.58;1.50;;;;;;;19.54;100.00;97376.16;5032707;28;20440;-70
2023/08/09 10:13:00;;;;;;;2.70;1.50;;;;;;;19.49;100.00;97379.75;5032710;28;20402;-70
2023/08/09 10:15:30;;;;;;;3.92;1.70;;;;;;;19.48;100.00;97378.16;5032643;28;20405;-70
2023/08/09 10:18:10;;;;;;;5.20;1.90;;;;;;;19.49;100.00;97379.75;5031287;28;20419;-71
2023/08/09 10:20:38;;;;;;;3.20;1.75;;;;;;;19.49;100.00;97387.00;5032447;28;20422;-71
2023/08/09 10:23:05;;;;;;;2.35;1.60;;;;;;;19.51;100.00;97388.28;5031383;28;20403;-70
2023/08/09 10:25:41;;;;;;;3.00;1.80;;;;;;;19.46;100.00;97391.06;5031969;28;20738;-71
2023/08/09 10:28:08;;;;;;;2.50;1.50;;;;;;;19.36;100.00;97390.53;5032451;28;20466;-70
2023/08/09 10:30:45;;;;;;;3.50;1.50;;;;;;;19.24;100.00;97391.09;5033778;28;20429;-70
2023/08/09 10:33:18;;;;;;;4.15;1.50;;;;;;;19.17;100.00;97388.06;5046221;28;20461;-70
2023/08/09 10:35:48;;;;;;;4.32;1.70;;;;;;;19.15;100.00;97388.38;5032251;28;20414;-70
2023/08/09 10:38:16;;;;;;;5.00;1.75;;;;;;;19.22;100.00;97393.31;5032164;28;20422;-70
2023/08/09 10:40:51;;;;;;;4.55;2.10;;;;;;;19.32;100.00;97396.50;5031956;28;20422;-70
2023/08/09 10:43:18;;;;;;;4.63;1.50;;;;;;;19.35;100.00;97387.06;5032177;28;20768;-71
2023/08/09 10:45:45;;;;;;;4.00;1.65;;;;;;;19.44;100.00;97390.59;5032062;28;20922;-70
2023/08/09 10:48:23;;;;;;;3.75;1.50;;;;;;;19.60;100.00;97389.13;5031986;28;20458;-71
2023/08/09 10:51:17;;;;;;;2.78;1.30;;;;;;;19.73;100.00;97386.63;5031886;28;20392;-70
2023/08/09 10:53:56;;;;;;;3.05;1.40;;;;;;;19.98;100.00;97388.66;5031890;28;20434;-71
2023/08/09 10:56:34;;;;;;;2.00;1.30;;;;;;;20.10;100.00;97400.38;5047855;28;20413;-70
2023/08/09 10:59:05;;;;;;;3.88;1.63;;;;;;;20.15;100.00;97387.91;5038635;28;20785;-71
2023/08/09 11:01:32;;;;;;;3.08;1.50;;;;;;;20.03;100.00;97401.94;5031733;28;20864;-71
2023/08/09 11:03:59;;;;;;;5.60;2.10;;;;;;;20.00;100.00;97406.03;5044339;28;20496;-71
2023/08/09 11:06:33;;;;;;;4.15;1.50;;;;;;;19.96;100.00;97393.53;5035245;28;20419;-71
2023/08/09 11:09:08;;;;;;;2.63;1.50;;;;;;;19.87;100.00;97392.69;5044506;28;20485;-71
2023/08/09 11:11:36;;;;;;;2.13;1.45;;;;;;;19.83;100.00;97391.75;5051679;28;20401;-71
2023/08/09 11:14:02;;;;;;;3.42;1.50;;;;;;;19.82;100.00;97401.69;5051722;28;20405;-71
2023/08/09 11:16:29;;;;;;;2.85;1.30;;;;;;;19.88;100.00;97399.66;5051409;28;20400;-71
2023/08/09 11:19:02;;;;;;;4.45;1.45;;;;;;;20.02;100.00;97392.28;5051330;28;20516;-71
2023/08/09 11:21:37;;;;;;;3.03;1.70;;;;;;;20.21;100.00;97392.81;5051267;28;20814;-71
2023/08/09 11:24:03;;;;;;;3.25;1.52;;;;;;;20.24;100.00;97384.13;5051370;28;20397;-71
2023/08/09 11:26:32;;;;;;;1.73;1.50;;;;;;;20.34;100.00;97389.22;5050768;28;20467;-71